createdAt,value
2022-08-19T00:01:52.898Z,5.20
2022-08-19T00:04:25.817Z,4.70
2022-08-19T00:06:53.165Z,4.88
2022-08-19T00:09:22.310Z,4.90
2022-08-19T00:11:49.737Z,4.88
2022-08-19T00:14:18.106Z,4.82
2022-08-19T00:16:46.950Z,4.18
2022-08-19T00:19:14.741Z,4.57
2022-08-19T00:21:41.577Z,4.25
2022-08-19T00:24:10.768Z,4.75
2022-08-19T00:26:38.444Z,4.78
2022-08-19T00:29:09.628Z,4.38
2022-08-19T00:31:36.687Z,5.00
2022-08-19T00:34:04.062Z,5.50
2022-08-19T00:36:32.790Z,5.95
2022-08-19T00:39:00.225Z,5.25
2022-08-19T00:41:27.112Z,5.25
2022-08-19T00:44:07.912Z,4.78
2022-08-19T00:46:37.545Z,5.93
2022-08-19T00:49:15.444Z,5.68
2022-08-19T00:51:44.481Z,5.22
2022-08-19T00:54:12.377Z,5.65
2022-08-19T00:56:39.770Z,6.43
2022-08-19T00:59:09.899Z,5.35
2022-08-19T01:01:38.758Z,5.75
2022-08-19T01:04:05.697Z,5.32
2022-08-19T01:06:33.504Z,6.00
2022-08-19T01:09:01.086Z,6.25
2022-08-19T01:11:30.696Z,6.55
2022-08-19T01:13:57.786Z,5.60
2022-08-19T01:16:27.924Z,6.45
2022-08-19T01:18:54.842Z,6.95
2022-08-19T01:21:43.115Z,6.90
2022-08-19T01:24:09.858Z,6.90
2022-08-19T01:26:43.894Z,7.40
2022-08-19T01:29:11.550Z,7.63
2022-08-19T01:31:40.249Z,7.55
2022-08-19T01:34:08.848Z,7.22
2022-08-19T01:36:46.494Z,7.10
2022-08-19T01:39:17.733Z,7.70
2022-08-19T01:41:44.540Z,7.05
2022-08-19T01:44:18.081Z,6.68
2022-08-19T01:46:49.176Z,6.53
2022-08-19T01:49:18.172Z,6.65
2022-08-19T01:51:44.992Z,6.00
2022-08-19T01:54:14.288Z,6.50
2022-08-19T01:57:07.547Z,6.25
2022-08-19T01:59:34.599Z,5.97
2022-08-19T02:02:02.075Z,6.10
2022-08-19T02:04:28.851Z,5.47
2022-08-19T02:06:55.728Z,5.90
2022-08-19T02:09:22.457Z,5.90
2022-08-19T02:11:49.219Z,5.60
2022-08-19T02:14:16.160Z,5.13
2022-08-19T02:16:42.913Z,5.63
2022-08-19T02:19:10.626Z,5.97
2022-08-19T02:21:38.394Z,5.70
2022-08-19T02:24:05.801Z,5.30
2022-08-19T02:26:33.709Z,5.50
2022-08-19T02:29:01.211Z,5.03
2022-08-19T02:31:31.783Z,5.47
2022-08-19T02:33:59.353Z,5.13
2022-08-19T02:36:26.494Z,4.28
2022-08-19T02:38:54.417Z,4.22
2022-08-19T02:41:32.413Z,4.55
2022-08-19T02:44:26.393Z,4.45
2022-08-19T02:46:51.825Z,4.43
2022-08-19T02:49:20.110Z,4.35
2022-08-19T02:51:47.850Z,4.13
2022-08-19T02:54:15.615Z,4.43
2022-08-19T02:56:43.984Z,4.57
2022-08-19T02:59:12.742Z,4.82
2022-08-19T03:01:42.556Z,4.80
2022-08-19T03:04:12.590Z,4.38
2022-08-19T03:06:41.815Z,5.25
2022-08-19T03:09:09.337Z,5.28
2022-08-19T03:11:36.306Z,5.30
2022-08-19T03:14:04.849Z,5.25
2022-08-19T03:16:34.102Z,5.55
2022-08-19T03:19:02.123Z,4.57
2022-08-19T03:21:31.100Z,4.95
2022-08-19T03:24:00.175Z,5.32
2022-08-19T03:26:27.184Z,5.18
2022-08-19T03:28:58.138Z,5.35
2022-08-19T03:31:43.700Z,4.93
2022-08-19T03:34:19.241Z,5.38
2022-08-19T03:36:47.041Z,4.55
2022-08-19T03:39:15.087Z,5.05
2022-08-19T03:41:46.305Z,5.80
2022-08-19T03:44:19.075Z,5.45
2022-08-19T03:46:53.954Z,5.53
2022-08-19T03:49:21.238Z,5.10
2022-08-19T03:51:54.933Z,5.63
2022-08-19T03:54:26.242Z,5.43
2022-08-19T03:56:54.865Z,5.35
2022-08-19T03:59:31.551Z,5.72
2022-08-19T04:02:00.651Z,4.75
2022-08-19T04:04:29.062Z,4.38
2022-08-19T04:06:57.714Z,5.22
2022-08-19T04:09:24.971Z,5.22
2022-08-19T04:11:56.339Z,4.82
2022-08-19T04:14:28.963Z,4.82
2022-08-19T04:16:56.028Z,5.10
2022-08-19T04:19:24.168Z,5.32
2022-08-19T04:21:54.124Z,4.82
2022-08-19T04:24:21.938Z,5.45
2022-08-19T04:26:49.514Z,5.78
2022-08-19T04:29:25.777Z,5.47
2022-08-19T04:34:24.367Z,5.20
2022-08-19T04:36:52.646Z,5.95
2022-08-19T04:39:22.743Z,6.00
2022-08-19T04:42:10.212Z,6.53
2022-08-19T04:44:45.945Z,5.90
2022-08-19T04:47:13.130Z,4.50
2022-08-19T04:49:39.959Z,5.53
2022-08-19T04:52:06.881Z,5.35
2022-08-19T04:54:37.751Z,5.88
2022-08-19T04:57:07.598Z,4.53
2022-08-19T04:59:34.640Z,5.18
2022-08-19T05:02:01.452Z,5.38
2022-08-19T05:04:32.812Z,5.15
2022-08-19T05:07:01.935Z,5.15
2022-08-19T05:09:53.311Z,5.80
2022-08-19T05:12:20.112Z,4.90
2022-08-19T05:14:48.235Z,5.57
2022-08-19T05:17:36.231Z,5.03
2022-08-19T05:20:22.017Z,5.40
2022-08-19T05:22:49.083Z,5.78
2022-08-19T05:25:20.140Z,5.80
2022-08-19T05:27:48.371Z,5.78
2022-08-19T05:30:15.431Z,6.00
2022-08-19T05:32:42.463Z,5.32
2022-08-19T05:35:10.337Z,4.63
2022-08-19T05:37:37.274Z,5.43
2022-08-19T05:40:05.034Z,5.10
2022-08-19T05:42:31.852Z,5.10
2022-08-19T05:44:59.241Z,5.07
2022-08-19T05:47:25.997Z,6.05
2022-08-19T05:49:52.825Z,5.60
2022-08-19T05:52:35.264Z,5.97
2022-08-19T05:55:02.103Z,5.50
2022-08-19T05:57:29.960Z,5.72
2022-08-19T05:59:59.013Z,6.00
2022-08-19T06:02:31.641Z,5.80
2022-08-19T06:04:58.881Z,5.32
2022-08-19T06:07:29.730Z,6.28
2022-08-19T06:10:00.888Z,5.30
2022-08-19T06:12:34.061Z,5.82
2022-08-19T06:15:07.637Z,8.25
2022-08-19T06:17:35.740Z,6.80
2022-08-19T06:20:05.740Z,7.97
2022-08-19T06:22:32.524Z,7.40
2022-08-19T06:24:59.293Z,7.78
2022-08-19T06:27:26.058Z,8.27
2022-08-19T06:29:53.084Z,9.68
2022-08-19T06:32:20.052Z,9.90
2022-08-19T06:34:47.312Z,10.13
2022-08-19T06:37:15.083Z,10.80
2022-08-19T06:39:44.037Z,10.43
2022-08-19T06:42:17.084Z,11.65
2022-08-19T06:44:49.017Z,10.85
2022-08-19T06:47:23.533Z,11.40
2022-08-19T06:50:04.063Z,10.73
2022-08-19T06:52:34.875Z,11.85
2022-08-19T06:55:06.072Z,11.35
2022-08-19T06:57:34.406Z,11.32
2022-08-19T07:00:01.312Z,10.82
2022-08-19T07:02:28.084Z,12.63
2022-08-19T07:04:55.068Z,12.63
2022-08-19T07:07:22.324Z,10.35
2022-08-19T07:09:55.326Z,11.68
2022-08-19T07:12:35.671Z,12.38
2022-08-19T07:15:06.998Z,13.25
2022-08-19T07:17:34.696Z,12.00
2022-08-19T07:20:05.393Z,13.13
2022-08-19T07:22:35.134Z,12.93
2022-08-19T07:25:03.863Z,12.45
2022-08-19T07:27:30.890Z,13.15
2022-08-19T07:30:01.164Z,15.30
2022-08-19T07:32:28.150Z,13.68
2022-08-19T07:34:56.680Z,13.60
2022-08-19T07:37:27.311Z,13.10
2022-08-19T07:39:56.308Z,14.80
2022-08-19T07:42:23.206Z,14.57
2022-08-19T07:44:50.904Z,14.30
2022-08-19T07:47:50.287Z,14.43
2022-08-19T07:50:08.855Z,15.30
2022-08-19T07:52:36.920Z,14.85
2022-08-19T07:55:05.578Z,14.45
2022-08-19T07:57:32.424Z,13.73
2022-08-19T07:59:59.540Z,14.10
2022-08-19T08:02:26.449Z,15.45
2022-08-19T08:05:11.748Z,15.60
2022-08-19T08:07:57.331Z,16.73
2022-08-19T08:10:24.680Z,16.52
2022-08-19T08:13:09.408Z,16.80
2022-08-19T08:15:42.996Z,16.92
2022-08-19T08:18:11.548Z,15.80
2022-08-19T08:20:38.993Z,16.95
2022-08-19T08:23:25.774Z,17.40
2022-08-19T08:28:21.159Z,17.27
2022-08-19T08:30:50.805Z,17.58
2022-08-19T08:33:32.916Z,15.75
2022-08-19T08:36:03.792Z,16.58
2022-08-19T08:38:38.383Z,16.75
2022-08-19T08:41:34.313Z,14.93
2022-08-19T08:44:03.407Z,17.63
2022-08-19T08:46:39.210Z,19.88
2022-08-19T08:49:17.298Z,20.38
2022-08-19T08:51:59.701Z,25.08
2022-08-19T08:54:35.874Z,29.70
2022-08-19T08:57:10.606Z,27.95
2022-08-19T08:59:41.702Z,32.67
2022-08-19T09:02:08.979Z,28.08
2022-08-19T09:04:37.668Z,32.13
2022-08-19T09:07:38.854Z,30.50
2022-08-19T09:10:34.532Z,28.75
2022-08-19T09:13:56.141Z,25.77
2022-08-19T09:16:27.826Z,22.40
2022-08-19T09:19:01.629Z,20.15
2022-08-19T09:21:33.505Z,23.45
2022-08-19T09:24:03.502Z,24.88
2022-08-19T09:26:48.406Z,20.33
2022-08-19T09:29:19.832Z,22.85
2022-08-19T09:31:50.407Z,21.70
2022-08-19T09:34:21.013Z,22.20
2022-08-19T09:36:50.423Z,18.65
2022-08-19T09:39:18.112Z,20.83
2022-08-19T09:41:47.486Z,17.20
2022-08-19T09:44:15.916Z,18.27
2022-08-19T09:46:42.660Z,19.70
2022-08-19T09:49:09.418Z,17.65
2022-08-19T09:51:36.267Z,17.10
2022-08-19T09:54:05.245Z,14.63
2022-08-19T09:56:34.050Z,13.88
2022-08-19T09:59:02.054Z,16.05
2022-08-19T10:01:31.103Z,16.92
2022-08-19T10:03:59.847Z,16.70
2022-08-19T10:06:45.249Z,15.20
2022-08-19T10:09:34.375Z,13.40
2022-08-19T10:12:05.033Z,15.65
2022-08-19T10:14:39.343Z,15.02
2022-08-19T10:17:26.718Z,15.20
2022-08-19T10:20:09.043Z,12.65
2022-08-19T10:22:40.960Z,13.18
2022-08-19T10:25:08.392Z,12.48
2022-08-19T10:27:35.210Z,11.27
2022-08-19T10:30:02.678Z,13.02
2022-08-19T10:32:34.182Z,11.55
2022-08-19T10:35:09.344Z,11.88
2022-08-19T10:37:37.903Z,12.15
2022-08-19T10:40:23.969Z,11.20
2022-08-19T10:42:50.791Z,9.65
2022-08-19T10:45:17.968Z,11.43
2022-08-19T10:47:47.943Z,10.20
2022-08-19T10:50:33.233Z,10.63
2022-08-19T10:53:08.037Z,9.60
2022-08-19T10:55:55.260Z,9.68
2022-08-19T10:58:24.634Z,8.38
2022-08-19T11:00:57.526Z,7.88
2022-08-19T11:03:25.642Z,8.48
2022-08-19T11:06:04.669Z,8.00
2022-08-19T11:08:32.069Z,8.68
2022-08-19T11:11:02.101Z,9.70
2022-08-19T11:13:34.460Z,9.13
2022-08-19T11:16:07.421Z,8.90
2022-08-19T11:18:44.118Z,9.38
2022-08-19T11:21:12.160Z,8.32
2022-08-19T11:23:38.967Z,8.32
2022-08-19T11:26:05.904Z,8.10
2022-08-19T11:28:32.699Z,6.10
2022-08-19T11:30:59.536Z,6.20
2022-08-19T11:33:27.309Z,6.38
2022-08-19T11:35:55.130Z,6.50
2022-08-19T11:38:24.007Z,6.65
2022-08-19T11:41:01.942Z,6.82
2022-08-19T11:43:29.479Z,6.28
2022-08-19T11:45:56.729Z,5.68
2022-08-19T11:48:24.362Z,6.32
2022-08-19T11:50:57.358Z,5.88
2022-08-19T11:53:24.570Z,5.78
2022-08-19T11:55:56.774Z,8.00
2022-08-19T11:58:24.045Z,7.50
2022-08-19T12:00:50.852Z,7.70
2022-08-19T12:03:18.368Z,8.05
2022-08-19T12:05:48.299Z,7.72
2022-08-19T12:08:16.484Z,7.25
2022-08-19T12:10:47.238Z,6.30
2022-08-19T12:13:19.458Z,5.88
2022-08-19T12:15:48.501Z,5.32
2022-08-19T12:18:15.382Z,5.53
2022-08-19T12:20:43.815Z,4.35
2022-08-19T12:23:11.238Z,4.32
2022-08-19T12:25:45.457Z,4.43
2022-08-19T12:28:12.338Z,3.13
2022-08-19T12:30:39.347Z,2.33
2022-08-19T12:33:06.182Z,2.05
2022-08-19T12:35:32.910Z,1.80
2022-08-19T12:38:00.952Z,1.30
2022-08-19T12:40:27.899Z,1.10
2022-08-19T12:42:55.229Z,1.25
2022-08-19T12:45:23.629Z,1.10
2022-08-19T12:47:50.665Z,1.00
2022-08-19T12:50:22.329Z,0.88
2022-08-19T12:52:49.167Z,0.90
2022-08-19T12:55:16.264Z,0.90
2022-08-19T12:57:42.958Z,0.95
2022-08-19T13:00:13.414Z,1.00
2022-08-19T13:02:42.928Z,0.90
2022-08-19T13:05:12.158Z,0.77
2022-08-19T13:07:40.936Z,1.08
2022-08-19T13:10:10.414Z,0.80
2022-08-19T13:12:37.241Z,0.80
2022-08-19T13:15:10.968Z,0.90
2022-08-19T13:17:39.156Z,1.08
2022-08-19T13:20:09.029Z,0.90
2022-08-19T13:22:39.274Z,1.00
2022-08-19T13:25:07.840Z,0.82
2022-08-19T13:27:34.887Z,1.08
2022-08-19T13:30:20.815Z,1.10
2022-08-19T13:33:06.279Z,1.23
2022-08-19T13:35:32.994Z,1.73
2022-08-19T13:37:59.844Z,1.40
2022-08-19T13:40:52.939Z,1.17
2022-08-19T13:43:23.802Z,1.13
2022-08-19T13:45:56.705Z,1.20
2022-08-19T13:48:25.172Z,1.20
2022-08-19T13:50:55.028Z,0.90
2022-08-19T13:53:21.856Z,1.10
2022-08-19T13:55:48.624Z,1.20
2022-08-19T13:58:15.710Z,1.27
2022-08-19T14:00:46.987Z,1.10
2022-08-19T14:03:14.239Z,1.20
2022-08-19T14:05:41.064Z,1.10
2022-08-19T14:08:08.113Z,1.55
2022-08-19T14:10:34.847Z,1.15
2022-08-19T14:13:04.089Z,1.40
2022-08-19T14:15:31.762Z,1.20
2022-08-19T14:22:11.656Z,1.70
2022-08-19T14:24:42.044Z,1.80
2022-08-19T14:27:15.704Z,1.52
2022-08-19T14:29:42.630Z,1.83
2022-08-19T14:32:11.591Z,1.73
2022-08-19T14:34:46.609Z,2.08
2022-08-19T14:37:17.067Z,2.00
2022-08-19T14:39:45.477Z,2.08
2022-08-19T14:42:15.437Z,1.77
2022-08-19T14:44:43.117Z,2.30
2022-08-19T14:47:10.529Z,1.90
2022-08-19T14:49:43.828Z,2.08
2022-08-19T14:52:11.602Z,2.45
2022-08-19T14:54:38.363Z,2.35
2022-08-19T14:57:05.213Z,2.40
2022-08-19T14:59:32.009Z,2.78
2022-08-19T15:02:00.622Z,2.08
2022-08-19T15:04:47.439Z,2.03
2022-08-19T15:07:25.748Z,1.90
2022-08-19T15:09:56.068Z,1.70
2022-08-19T15:12:23.465Z,1.70
2022-08-19T15:14:51.880Z,1.58
2022-08-19T15:17:32.454Z,1.70
2022-08-19T15:20:11.198Z,1.90
2022-08-19T15:22:38.079Z,1.70
2022-08-19T15:25:07.382Z,1.52
2022-08-19T15:27:35.155Z,1.75
2022-08-19T15:30:02.018Z,1.77
2022-08-19T15:32:30.146Z,1.90
2022-08-19T15:34:57.059Z,1.90
2022-08-19T15:37:23.957Z,2.20
2022-08-19T15:39:51.127Z,2.22
2022-08-19T15:42:29.507Z,2.30
2022-08-19T15:45:00.519Z,2.22
2022-08-19T15:47:35.472Z,2.50
2022-08-19T15:50:13.965Z,3.22
2022-08-19T15:53:08.354Z,3.28
2022-08-19T15:55:42.336Z,3.30
2022-08-19T15:58:45.958Z,3.72
2022-08-19T16:01:47.772Z,4.13
2022-08-19T16:04:34.968Z,5.25
2022-08-19T16:07:03.377Z,4.63
2022-08-19T16:09:32.599Z,5.40
2022-08-19T16:12:02.399Z,5.97
2022-08-19T16:14:32.399Z,5.57
2022-08-19T16:16:59.389Z,6.13
2022-08-19T16:19:26.287Z,6.00
2022-08-19T16:21:55.200Z,6.20
2022-08-19T16:24:25.909Z,6.35
2022-08-19T16:26:52.725Z,6.40
2022-08-19T16:29:33.855Z,6.75
2022-08-19T16:32:06.737Z,5.80
2022-08-19T16:34:34.612Z,5.28
2022-08-19T16:37:01.699Z,5.82
2022-08-19T16:39:28.574Z,5.45
2022-08-19T16:41:55.333Z,4.95
2022-08-19T16:44:22.132Z,4.35
2022-08-19T16:46:58.285Z,4.00
2022-08-19T16:49:52.934Z,3.35
2022-08-19T16:52:14.752Z,3.05
2022-08-19T16:54:43.690Z,2.75
2022-08-19T16:57:11.707Z,2.42
2022-08-19T16:59:43.769Z,2.78
2022-08-19T17:02:18.018Z,2.50
2022-08-19T17:04:45.117Z,2.85
2022-08-19T17:07:26.381Z,2.72
2022-08-19T17:09:53.111Z,2.85
2022-08-19T17:12:19.907Z,3.30
2022-08-19T17:14:46.668Z,3.65
2022-08-19T17:17:13.515Z,2.80
2022-08-19T17:19:42.408Z,3.80
2022-08-19T17:22:10.199Z,3.42
2022-08-19T17:24:40.566Z,3.83
2022-08-19T17:27:09.185Z,3.70
2022-08-19T17:29:35.997Z,4.10
2022-08-19T17:32:03.085Z,3.83
2022-08-19T17:34:30.312Z,3.83
2022-08-19T17:36:57.147Z,3.30
2022-08-19T17:39:25.252Z,3.40
2022-08-19T17:41:51.997Z,3.58
2022-08-19T17:44:18.953Z,3.72
2022-08-19T17:46:46.629Z,3.00
2022-08-19T17:49:13.840Z,3.05
2022-08-19T17:51:44.964Z,3.25
2022-08-19T17:54:15.494Z,3.38
2022-08-19T17:56:43.308Z,3.20
2022-08-19T17:59:13.823Z,3.13
2022-08-19T18:01:53.097Z,3.10
2022-08-19T18:04:24.866Z,2.88
2022-08-19T18:06:54.389Z,3.10
2022-08-19T18:09:28.468Z,3.08
2022-08-19T18:11:59.197Z,3.30
2022-08-19T18:14:33.698Z,3.38
2022-08-19T18:17:09.564Z,4.13
2022-08-19T18:19:41.000Z,3.45
2022-08-19T18:22:20.365Z,3.40
2022-08-19T18:24:47.102Z,3.30
2022-08-19T18:27:14.749Z,3.63
2022-08-19T18:29:41.528Z,3.90
2022-08-19T18:32:12.590Z,3.65
2022-08-19T18:34:40.993Z,4.40
2022-08-19T18:37:07.754Z,4.43
2022-08-19T18:39:53.072Z,3.90
2022-08-19T18:42:40.516Z,4.30
2022-08-19T18:45:27.873Z,4.07
2022-08-19T18:48:23.991Z,4.28
2022-08-19T18:50:56.019Z,4.60
2022-08-19T18:53:22.753Z,4.07
2022-08-19T18:55:51.884Z,4.20
2022-08-19T18:58:18.673Z,4.30
2022-08-19T19:00:45.560Z,4.50
2022-08-19T19:03:12.305Z,4.20
2022-08-19T19:05:42.172Z,4.63
2022-08-19T19:08:09.278Z,5.45
2022-08-19T19:10:36.215Z,6.18
2022-08-19T19:13:03.378Z,6.55
2022-08-19T19:15:30.191Z,7.03
2022-08-19T19:17:57.069Z,6.82
2022-08-19T19:20:36.632Z,6.85
2022-08-19T19:23:04.272Z,7.85
2022-08-19T19:25:49.627Z,7.88
2022-08-19T19:28:27.443Z,7.95
2022-08-19T19:33:25.308Z,7.93
2022-08-19T19:35:52.201Z,8.98
2022-08-19T19:38:21.054Z,8.73
2022-08-19T19:40:47.962Z,8.65
2022-08-19T19:43:17.069Z,8.85
2022-08-19T19:45:44.297Z,9.20
2022-08-19T19:48:13.433Z,9.38
2022-08-19T19:50:40.698Z,9.70
2022-08-19T19:53:07.412Z,8.57
2022-08-19T19:55:34.160Z,9.18
2022-08-19T19:58:00.935Z,9.50
2022-08-19T20:00:28.829Z,8.60
2022-08-19T20:02:55.880Z,9.38
2022-08-19T20:05:23.877Z,9.57
2022-08-19T20:08:10.797Z,8.82
2022-08-19T20:10:39.823Z,9.77
2022-08-19T20:13:07.461Z,9.10
2022-08-19T20:15:37.911Z,9.65
2022-08-19T20:18:07.199Z,9.40
2022-08-19T20:20:34.911Z,7.55
2022-08-19T20:23:02.038Z,8.50
2022-08-19T20:25:28.914Z,8.77
2022-08-19T20:27:55.807Z,8.75
2022-08-19T20:30:23.266Z,8.40
2022-08-19T20:32:50.551Z,8.13
2022-08-19T20:35:22.136Z,7.68
2022-08-19T20:37:52.830Z,8.15
2022-08-19T20:40:22.872Z,8.05
2022-08-19T20:42:51.973Z,7.63
2022-08-19T20:45:33.685Z,7.57
2022-08-19T20:48:06.520Z,8.02
2022-08-19T20:50:35.461Z,8.20
2022-08-19T20:53:13.423Z,7.40
2022-08-19T20:55:44.330Z,8.13
2022-08-19T20:58:12.581Z,7.88
2022-08-19T21:00:40.944Z,7.78
2022-08-19T21:03:07.732Z,8.45
2022-08-19T21:05:34.542Z,7.72
2022-08-19T21:08:03.136Z,8.00
2022-08-19T21:10:30.196Z,7.88
2022-08-19T21:12:57.005Z,7.65
2022-08-19T21:15:24.637Z,8.02
2022-08-19T21:17:51.931Z,8.00
2022-08-19T21:20:18.843Z,8.48
2022-08-19T21:22:45.824Z,7.95
2022-08-19T21:25:12.875Z,7.70
2022-08-19T21:27:39.593Z,8.48
2022-08-19T21:30:06.892Z,7.95
2022-08-19T21:32:33.633Z,8.10
2022-08-19T21:35:00.395Z,8.32
2022-08-19T21:37:33.431Z,7.80
2022-08-19T21:40:00.415Z,8.25
2022-08-19T21:42:27.198Z,8.40
2022-08-19T21:44:53.941Z,9.25
2022-08-19T21:47:20.669Z,8.77
2022-08-19T21:49:47.400Z,8.25
2022-08-19T21:52:20.343Z,8.93
2022-08-19T21:54:47.085Z,8.30
2022-08-19T21:57:13.786Z,8.27
2022-08-19T21:59:44.358Z,9.32
2022-08-19T22:02:20.495Z,8.38
2022-08-19T22:04:48.532Z,8.25
2022-08-19T22:07:15.571Z,7.70
2022-08-19T22:09:44.074Z,8.80
2022-08-19T22:12:21.125Z,9.82
2022-08-19T22:14:47.901Z,9.70
2022-08-19T22:17:14.710Z,10.77
2022-08-19T22:19:41.518Z,10.35
2022-08-19T22:22:08.447Z,10.40
2022-08-19T22:24:35.269Z,10.90
2022-08-19T22:27:05.745Z,11.60
2022-08-19T22:29:36.475Z,10.65
2022-08-19T22:32:23.041Z,10.23
2022-08-19T22:34:51.763Z,10.77
2022-08-19T22:37:18.757Z,10.88
2022-08-19T22:39:45.680Z,11.13
2022-08-19T22:42:12.736Z,11.75
2022-08-19T22:44:39.496Z,10.00
2022-08-19T22:47:06.321Z,10.25
2022-08-19T22:49:33.158Z,10.63
2022-08-19T22:52:17.293Z,9.93
2022-08-19T22:54:50.069Z,9.63
2022-08-19T22:57:19.585Z,10.18
2022-08-19T22:59:51.187Z,10.02
2022-08-19T23:02:23.532Z,10.43
2022-08-19T23:04:53.392Z,10.00
2022-08-19T23:07:23.599Z,8.82
2022-08-19T23:09:51.046Z,8.88
2022-08-19T23:12:30.695Z,10.43
2022-08-19T23:15:06.351Z,9.45
2022-08-19T23:17:33.602Z,9.43
2022-08-19T23:20:00.397Z,8.85
2022-08-19T23:22:27.377Z,9.85
2022-08-19T23:24:55.989Z,9.65
2022-08-19T23:27:44.261Z,9.45
2022-08-19T23:30:26.553Z,9.52
2022-08-19T23:33:46.643Z,9.23
2022-08-19T23:36:19.372Z,9.48
2022-08-19T23:38:48.012Z,11.10
2022-08-19T23:41:16.872Z,10.88
2022-08-19T23:43:44.790Z,11.60
2022-08-19T23:46:14.417Z,10.25
2022-08-19T23:48:54.646Z,11.25
2022-08-19T23:51:21.370Z,12.23
2022-08-19T23:53:50.097Z,11.60
2022-08-19T23:56:17.170Z,11.77
2022-08-19T23:58:43.881Z,12.27
